sensor_id;sensor_type;location;lat;lon;timestamp;pressure;altitude;pressure_sealevel;temperature;humidity
5574;BME280;2563;52.242;7.956;2023-11-22T00:00:39;102194.84;;;3.54;100.00
5574;BME280;2563;52.242;7.956;2023-11-22T00:03:05;102206.69;;;3.52;100.00
5574;BME280;2563;52.242;7.956;2023-11-22T00:05:30;102208.31;;;3.50;100.00
5574;BME280;2563;52.242;7.956;2023-11-22T00:07:55;102218.31;;;3.44;100.00
5574;BME280;2563;52.242;7.956;2023-11-22T00:10:22;102219.38;;;3.51;100.00
5574;BME280;2563;52.242;7.956;2023-11-22T00:12:48;102232.03;;;3.49;100.00
5574;BME280;2563;52.242;7.956;2023-11-22T00:15:14;102240.59;;;3.51;100.00
5574;BME280;2563;52.242;7.956;2023-11-22T00:17:43;102240.31;;;3.69;100.00
5574;BME280;2563;52.242;7.956;2023-11-22T00:20:09;102252.38;;;3.75;100.00
5574;BME280;2563;52.242;7.956;2023-11-22T00:22:35;102259.31;;;3.79;100.00
5574;BME280;2563;52.242;7.956;2023-11-22T00:25:00;102258.56;;;3.83;100.00
5574;BME280;2563;52.242;7.956;2023-11-22T00:27:27;102260.31;;;3.84;100.00
5574;BME280;2563;52.242;7.956;2023-11-22T00:29:53;102267.13;;;3.85;100.00
5574;BME280;2563;52.242;7.956;2023-11-22T00:32:18;102273.75;;;3.80;100.00
5574;BME280;2563;52.242;7.956;2023-11-22T00:34:44;102276.00;;;3.71;100.00
5574;BME280;2563;52.242;7.956;2023-11-22T00:37:09;102283.56;;;3.68;100.00
5574;BME280;2563;52.242;7.956;2023-11-22T00:39:36;102289.19;;;3.57;100.00
5574;BME280;2563;52.242;7.956;2023-11-22T00:42:02;102288.25;;;3.55;100.00
5574;BME280;2563;52.242;7.956;2023-11-22T00:44:29;102285.56;;;3.51;100.00
5574;BME280;2563;52.242;7.956;2023-11-22T00:46:54;102285.41;;;3.46;100.00
5574;BME280;2563;52.242;7.956;2023-11-22T00:49:20;102296.19;;;3.39;100.00
5574;BME280;2563;52.242;7.956;2023-11-22T00:51:46;102306.03;;;3.28;100.00
5574;BME280;2563;52.242;7.956;2023-11-22T00:54:13;102309.28;;;3.24;100.00
5574;BME280;2563;52.242;7.956;2023-11-22T00:56:38;102305.66;;;3.17;100.00
5574;BME280;2563;52.242;7.956;2023-11-22T00:59:03;102311.25;;;3.07;100.00
5574;BME280;2563;52.242;7.956;2023-11-22T01:01:29;102313.97;;;3.13;100.00
5574;BME280;2563;52.242;7.956;2023-11-22T01:03:56;102312.94;;;3.08;100.00
5574;BME280;2563;52.242;7.956;2023-11-22T01:06:22;102318.63;;;3.01;100.00
5574;BME280;2563;52.242;7.956;2023-11-22T01:08:48;102326.16;;;2.98;100.00
5574;BME280;2563;52.242;7.956;2023-11-22T01:11:13;102328.28;;;2.86;100.00
5574;BME280;2563;52.242;7.956;2023-11-22T01:13:39;102326.31;;;2.79;100.00
5574;BME280;2563;52.242;7.956;2023-11-22T01:16:11;102328.25;;;2.62;100.00
5574;BME280;2563;52.242;7.956;2023-11-22T01:18:36;102324.03;;;2.62;100.00
5574;BME280;2563;52.242;7.956;2023-11-22T01:21:02;102334.28;;;2.65;100.00
5574;BME280;2563;52.242;7.956;2023-11-22T01:23:29;102333.25;;;2.60;100.00
5574;BME280;2563;52.242;7.956;2023-11-22T01:25:55;102338.81;;;2.50;100.00
5574;BME280;2563;52.242;7.956;2023-11-22T01:28:20;102337.22;;;2.52;100.00
5574;BME280;2563;52.242;7.956;2023-11-22T01:30:45;102335.34;;;2.48;100.00
5574;BME280;2563;52.242;7.956;2023-11-22T01:33:11;102325.69;;;2.39;100.00
5574;BME280;2563;52.242;7.956;2023-11-22T01:35:37;102326.91;;;2.26;100.00
5574;BME280;2563;52.242;7.956;2023-11-22T01:38:03;102327.00;;;2.07;100.00
5574;BME280;2563;52.242;7.956;2023-11-22T01:40:30;102334.00;;;1.91;100.00
5574;BME280;2563;52.242;7.956;2023-11-22T01:42:55;102338.28;;;1.92;100.00
5574;BME280;2563;52.242;7.956;2023-11-22T01:45:20;102337.16;;;1.86;100.00
5574;BME280;2563;52.242;7.956;2023-11-22T01:47:46;102345.97;;;1.73;100.00
5574;BME280;2563;52.242;7.956;2023-11-22T01:50:12;102352.53;;;1.68;100.00
5574;BME280;2563;52.242;7.956;2023-11-22T01:52:38;102354.59;;;1.57;100.00
5574;BME280;2563;52.242;7.956;2023-11-22T01:55:05;102354.69;;;1.59;100.00
5574;BME280;2563;52.242;7.956;2023-11-22T01:57:31;102361.75;;;1.66;100.00
5574;BME280;2563;52.242;7.956;2023-11-22T02:00:00;102360.97;;;1.47;100.00
5574;BME280;2563;52.242;7.956;2023-11-22T02:02:26;102369.66;;;1.33;100.00
5574;BME280;2563;52.242;7.956;2023-11-22T02:04:51;102371.13;;;1.28;100.00
5574;BME280;2563;52.242;7.956;2023-11-22T02:07:17;102371.41;;;1.34;100.00
5574;BME280;2563;52.242;7.956;2023-11-22T02:09:42;102376.47;;;1.34;100.00
5574;BME280;2563;52.242;7.956;2023-11-22T02:12:07;102375.59;;;1.34;100.00
5574;BME280;2563;52.242;7.956;2023-11-22T02:14:33;102373.00;;;1.32;100.00
5574;BME280;2563;52.242;7.956;2023-11-22T02:16:59;102371.13;;;1.28;100.00
5574;BME280;2563;52.242;7.956;2023-11-22T02:19:25;102379.94;;;1.36;100.00
5574;BME280;2563;52.242;7.956;2023-11-22T02:21:50;102374.41;;;1.25;100.00
5574;BME280;2563;52.242;7.956;2023-11-22T02:24:17;102377.56;;;1.20;100.00
5574;BME280;2563;52.242;7.956;2023-11-22T02:26:45;102372.13;;;1.32;100.00
5574;BME280;2563;52.242;7.956;2023-11-22T02:29:11;102374.47;;;1.27;100.00
5574;BME280;2563;52.242;7.956;2023-11-22T02:31:39;102381.41;;;1.31;100.00
5574;BME280;2563;52.242;7.956;2023-11-22T02:34:04;102371.06;;;1.26;100.00
5574;BME280;2563;52.242;7.956;2023-11-22T02:36:30;102372.72;;;1.26;100.00
5574;BME280;2563;52.242;7.956;2023-11-22T02:38:56;102380.47;;;1.10;100.00
5574;BME280;2563;52.242;7.956;2023-11-22T02:41:21;102376.09;;;0.88;100.00
5574;BME280;2563;52.242;7.956;2023-11-22T02:43:47;102367.78;;;0.90;100.00
5574;BME280;2563;52.242;7.956;2023-11-22T02:46:12;102382.56;;;0.81;100.00
5574;BME280;2563;52.242;7.956;2023-11-22T02:48:37;102380.13;;;0.64;100.00
5574;BME280;2563;52.242;7.956;2023-11-22T02:51:03;102389.03;;;0.56;100.00
5574;BME280;2563;52.242;7.956;2023-11-22T02:53:28;102381.44;;;0.56;100.00
5574;BME280;2563;52.242;7.956;2023-11-22T02:55:55;102390.94;;;0.60;100.00
5574;BME280;2563;52.242;7.956;2023-11-22T02:58:23;102395.78;;;0.56;100.00
5574;BME280;2563;52.242;7.956;2023-11-22T03:00:49;102410.78;;;0.51;100.00
5574;BME280;2563;52.242;7.956;2023-11-22T03:03:14;102425.16;;;0.52;100.00
5574;BME280;2563;52.242;7.956;2023-11-22T03:05:40;102442.56;;;0.62;100.00
5574;BME280;2563;52.242;7.956;2023-11-22T03:08:05;102444.81;;;0.74;100.00
5574;BME280;2563;52.242;7.956;2023-11-22T03:10:33;102446.31;;;0.71;100.00
5574;BME280;2563;52.242;7.956;2023-11-22T03:12:58;102456.00;;;0.61;100.00
5574;BME280;2563;52.242;7.956;2023-11-22T03:15:24;102454.47;;;0.83;100.00
5574;BME280;2563;52.242;7.956;2023-11-22T03:17:49;102470.78;;;0.88;100.00
5574;BME280;2563;52.242;7.956;2023-11-22T03:20:14;102480.13;;;0.71;100.00
5574;BME280;2563;52.242;7.956;2023-11-22T03:22:41;102481.84;;;0.54;100.00
5574;BME280;2563;52.242;7.956;2023-11-22T03:25:09;102480.19;;;0.37;100.00
5574;BME280;2563;52.242;7.956;2023-11-22T03:27:35;102485.09;;;0.34;100.00
5574;BME280;2563;52.242;7.956;2023-11-22T03:30:01;102505.50;;;0.37;100.00
5574;BME280;2563;52.242;7.956;2023-11-22T03:32:27;102515.75;;;0.22;100.00
5574;BME280;2563;52.242;7.956;2023-11-22T03:34:53;102518.78;;;0.15;100.00
5574;BME280;2563;52.242;7.956;2023-11-22T03:37:18;102541.31;;;0.10;100.00
5574;BME280;2563;52.242;7.956;2023-11-22T03:39:44;102551.13;;;0.04;100.00
5574;BME280;2563;52.242;7.956;2023-11-22T03:42:16;102562.13;;;0.05;100.00
5574;BME280;2563;52.242;7.956;2023-11-22T03:44:41;102574.56;;;0.00;100.00
5574;BME280;2563;52.242;7.956;2023-11-22T03:47:07;102589.44;;;-0.06;100.00
5574;BME280;2563;52.242;7.956;2023-11-22T03:49:32;102603.44;;;0.20;100.00
5574;BME280;2563;52.242;7.956;2023-11-22T03:51:58;102612.38;;;0.13;100.00
5574;BME280;2563;52.242;7.956;2023-11-22T03:54:23;102626.63;;;0.28;100.00
5574;BME280;2563;52.242;7.956;2023-11-22T03:56:49;102635.66;;;0.23;100.00
5574;BME280;2563;52.242;7.956;2023-11-22T03:59:14;102631.34;;;-0.11;100.00
5574;BME280;2563;52.242;7.956;2023-11-22T04:01:39;102616.13;;;-0.28;100.00
5574;BME280;2563;52.242;7.956;2023-11-22T04:04:05;102629.94;;;-0.37;100.00
5574;BME280;2563;52.242;7.956;2023-11-22T04:06:30;102640.28;;;-0.49;100.00
5574;BME280;2563;52.242;7.956;2023-11-22T04:08:59;102641.38;;;-0.44;100.00
5574;BME280;2563;52.242;7.956;2023-11-22T04:11:24;102621.06;;;-0.46;100.00
5574;BME280;2563;52.242;7.956;2023-11-22T04:13:49;102617.66;;;-0.46;100.00
5574;BME280;2563;52.242;7.956;2023-11-22T04:16:15;102622.91;;;-0.58;100.00
5574;BME280;2563;52.242;7.956;2023-11-22T04:18:41;102614.38;;;-0.60;100.00
5574;BME280;2563;52.242;7.956;2023-11-22T04:21:07;102602.78;;;-0.56;100.00
5574;BME280;2563;52.242;7.956;2023-11-22T04:23:34;102597.09;;;-0.52;100.00
5574;BME280;2563;52.242;7.956;2023-11-22T04:26:00;102593.47;;;-0.57;100.00
5574;BME280;2563;52.242;7.956;2023-11-22T04:28:26;102604.34;;;-0.58;100.00
5574;BME280;2563;52.242;7.956;2023-11-22T04:30:52;102596.00;;;-0.57;100.00
5574;BME280;2563;52.242;7.956;2023-11-22T04:33:18;102590.88;;;-0.74;100.00
5574;BME280;2563;52.242;7.956;2023-11-22T04:35:43;102587.91;;;-0.67;100.00
5574;BME280;2563;52.242;7.956;2023-11-22T04:38:09;102581.75;;;-0.55;100.00
5574;BME280;2563;52.242;7.956;2023-11-22T04:40:34;102578.28;;;-0.57;100.00
5574;BME280;2563;52.242;7.956;2023-11-22T04:43:00;102578.97;;;-0.60;100.00
5574;BME280;2563;52.242;7.956;2023-11-22T04:45:25;102594.06;;;-0.61;100.00
5574;BME280;2563;52.242;7.956;2023-11-22T04:47:51;102603.19;;;-0.49;100.00
5574;BME280;2563;52.242;7.956;2023-11-22T04:50:16;102611.88;;;-0.44;100.00
5574;BME280;2563;52.242;7.956;2023-11-22T04:52:42;102625.84;;;-0.35;100.00
5574;BME280;2563;52.242;7.956;2023-11-22T04:55:08;102623.78;;;-0.43;100.00
5574;BME280;2563;52.242;7.956;2023-11-22T04:57:33;102628.44;;;-0.50;100.00
5574;BME280;2563;52.242;7.956;2023-11-22T04:59:59;102625.53;;;-0.56;100.00
5574;BME280;2563;52.242;7.956;2023-11-22T05:02:26;102645.88;;;-0.70;100.00
5574;BME280;2563;52.242;7.956;2023-11-22T05:04:52;102662.44;;;-0.75;100.00
5574;BME280;2563;52.242;7.956;2023-11-22T05:07:17;102681.38;;;-0.83;100.00
5574;BME280;2563;52.242;7.956;2023-11-22T05:09:44;102694.63;;;-0.87;100.00
5574;BME280;2563;52.242;7.956;2023-11-22T05:12:10;102690.09;;;-0.78;100.00
5574;BME280;2563;52.242;7.956;2023-11-22T05:14:39;102691.13;;;-0.89;100.00
5574;BME280;2563;52.242;7.956;2023-11-22T05:17:05;102696.44;;;-0.99;100.00
5574;BME280;2563;52.242;7.956;2023-11-22T05:19:30;102706.03;;;-0.94;100.00
5574;BME280;2563;52.242;7.956;2023-11-22T05:21:56;102712.31;;;-1.02;100.00
5574;BME280;2563;52.242;7.956;2023-11-22T05:24:22;102718.34;;;-0.85;100.00
5574;BME280;2563;52.242;7.956;2023-11-22T05:26:47;102732.22;;;-0.93;100.00
5574;BME280;2563;52.242;7.956;2023-11-22T05:29:13;102728.06;;;-1.06;100.00
5574;BME280;2563;52.242;7.956;2023-11-22T05:31:38;102732.09;;;-1.10;100.00
5574;BME280;2563;52.242;7.956;2023-11-22T05:34:04;102728.16;;;-1.19;100.00
5574;BME280;2563;52.242;7.956;2023-11-22T05:36:29;102730.75;;;-1.18;100.00
5574;BME280;2563;52.242;7.956;2023-11-22T05:38:55;102731.38;;;-1.22;100.00
5574;BME280;2563;52.242;7.956;2023-11-22T05:41:20;102739.53;;;-1.26;100.00
5574;BME280;2563;52.242;7.956;2023-11-22T05:43:46;102729.06;;;-1.32;100.00
5574;BME280;2563;52.242;7.956;2023-11-22T05:46:11;102734.22;;;-1.31;100.00
5574;BME280;2563;52.242;7.956;2023-11-22T05:48:38;102732.63;;;-1.43;100.00
5574;BME280;2563;52.242;7.956;2023-11-22T05:51:03;102734.25;;;-1.44;100.00
5574;BME280;2563;52.242;7.956;2023-11-22T05:53:28;102742.63;;;-1.45;100.00
5574;BME280;2563;52.242;7.956;2023-11-22T05:55:54;102738.66;;;-1.55;100.00
5574;BME280;2563;52.242;7.956;2023-11-22T05:58:19;102736.91;;;-1.56;100.00
5574;BME280;2563;52.242;7.956;2023-11-22T06:00:45;102742.38;;;-1.63;100.00
5574;BME280;2563;52.242;7.956;2023-11-22T06:03:11;102749.53;;;-1.56;100.00
5574;BME280;2563;52.242;7.956;2023-11-22T06:05:38;102760.13;;;-1.48;100.00
5574;BME280;2563;52.242;7.956;2023-11-22T06:08:03;102768.38;;;-1.51;100.00
5574;BME280;2563;52.242;7.956;2023-11-22T06:10:29;102774.75;;;-1.42;100.00
5574;BME280;2563;52.242;7.956;2023-11-22T06:12:54;102773.63;;;-1.47;100.00
5574;BME280;2563;52.242;7.956;2023-11-22T06:15:19;102781.59;;;-1.55;100.00
5574;BME280;2563;52.242;7.956;2023-11-22T06:17:46;102790.88;;;-1.40;100.00
5574;BME280;2563;52.242;7.956;2023-11-22T06:20:12;102795.16;;;-1.39;100.00
5574;BME280;2563;52.242;7.956;2023-11-22T06:22:38;102797.09;;;-1.35;100.00
5574;BME280;2563;52.242;7.956;2023-11-22T06:25:08;102814.59;;;-1.38;100.00
5574;BME280;2563;52.242;7.956;2023-11-22T06:27:33;102816.50;;;-1.34;100.00
5574;BME280;2563;52.242;7.956;2023-11-22T06:29:58;102822.75;;;-1.42;100.00
5574;BME280;2563;52.242;7.956;2023-11-22T06:32:24;102825.28;;;-1.56;100.00
5574;BME280;2563;52.242;7.956;2023-11-22T06:34:49;102831.41;;;-1.52;100.00
5574;BME280;2563;52.242;7.956;2023-11-22T06:37:15;102824.06;;;-1.62;100.00
5574;BME280;2563;52.242;7.956;2023-11-22T06:39:40;102816.50;;;-1.62;100.00
5574;BME280;2563;52.242;7.956;2023-11-22T06:42:05;102821.59;;;-1.61;100.00
5574;BME280;2563;52.242;7.956;2023-11-22T06:44:31;102814.44;;;-1.55;100.00
5574;BME280;2563;52.242;7.956;2023-11-22T06:46:57;102820.81;;;-1.46;100.00
5574;BME280;2563;52.242;7.956;2023-11-22T06:49:23;102827.19;;;-1.25;100.00
5574;BME280;2563;52.242;7.956;2023-11-22T06:51:48;102822.91;;;-1.26;100.00
5574;BME280;2563;52.242;7.956;2023-11-22T06:54:13;102824.63;;;-1.12;100.00
5574;BME280;2563;52.242;7.956;2023-11-22T06:56:39;102832.66;;;-1.04;100.00
5574;BME280;2563;52.242;7.956;2023-11-22T06:59:04;102829.84;;;-0.95;100.00
5574;BME280;2563;52.242;7.956;2023-11-22T07:01:29;102829.00;;;-0.81;100.00
5574;BME280;2563;52.242;7.956;2023-11-22T07:03:55;102843.53;;;-0.77;100.00
5574;BME280;2563;52.242;7.956;2023-11-22T07:06:20;102846.16;;;-0.75;100.00
5574;BME280;2563;52.242;7.956;2023-11-22T07:08:48;102846.16;;;-0.75;100.00
5574;BME280;2563;52.242;7.956;2023-11-22T07:11:21;102864.16;;;-0.71;100.00
5574;BME280;2563;52.242;7.956;2023-11-22T07:13:48;102866.78;;;-0.69;100.00
5574;BME280;2563;52.242;7.956;2023-11-22T07:16:13;102873.19;;;-0.74;100.00
5574;BME280;2563;52.242;7.956;2023-11-22T07:18:40;102887.69;;;-0.72;100.00
5574;BME280;2563;52.242;7.956;2023-11-22T07:21:05;102875.84;;;-0.58;100.00
5574;BME280;2563;52.242;7.956;2023-11-22T07:23:31;102871.69;;;-0.57;100.00
5574;BME280;2563;52.242;7.956;2023-11-22T07:25:56;102873.06;;;-0.62;100.00
5574;BME280;2563;52.242;7.956;2023-11-22T07:28:21;102877.63;;;-0.42;100.00
5574;BME280;2563;52.242;7.956;2023-11-22T07:30:47;102880.59;;;-0.49;100.00
5574;BME280;2563;52.242;7.956;2023-11-22T07:33:14;102877.47;;;-0.45;100.00
5574;BME280;2563;52.242;7.956;2023-11-22T07:35:40;102870.84;;;-0.43;100.00
5574;BME280;2563;52.242;7.956;2023-11-22T07:38:06;102869.44;;;-0.38;100.00
5574;BME280;2563;52.242;7.956;2023-11-22T07:40:33;102876.06;;;-0.40;100.00
5574;BME280;2563;52.242;7.956;2023-11-22T07:42:59;102863.44;;;-0.25;100.00
5574;BME280;2563;52.242;7.956;2023-11-22T07:45:25;102866.50;;;-0.16;100.00
5574;BME280;2563;52.242;7.956;2023-11-22T07:47:50;102852.53;;;-0.09;100.00
5574;BME280;2563;52.242;7.956;2023-11-22T07:50:18;102851.19;;;-0.03;100.00
5574;BME280;2563;52.242;7.956;2023-11-22T07:52:45;102836.00;;;0.12;100.00
5574;BME280;2563;52.242;7.956;2023-11-22T07:55:10;102822.13;;;0.06;100.00
5574;BME280;2563;52.242;7.956;2023-11-22T07:57:37;102820.81;;;0.12;100.00
5574;BME280;2563;52.242;7.956;2023-11-22T08:00:04;102806.19;;;0.23;100.00
5574;BME280;2563;52.242;7.956;2023-11-22T08:02:33;102798.69;;;0.25;100.00
5574;BME280;2563;52.242;7.956;2023-11-22T08:04:58;102771.38;;;0.35;100.00
5574;BME280;2563;52.242;7.956;2023-11-22T08:07:27;102764.75;;;0.37;100.00
5574;BME280;2563;52.242;7.956;2023-11-22T08:09:53;102761.19;;;0.50;100.00
5574;BME280;2563;52.242;7.956;2023-11-22T08:12:18;102768.56;;;0.62;100.00
5574;BME280;2563;52.242;7.956;2023-11-22T08:14:44;102766.47;;;0.70;100.00
5574;BME280;2563;52.242;7.956;2023-11-22T08:17:09;102768.44;;;0.75;100.00
5574;BME280;2563;52.242;7.956;2023-11-22T08:19:37;102774.22;;;0.89;100.00
5574;BME280;2563;52.242;7.956;2023-11-22T08:22:04;102774.75;;;1.00;100.00
5574;BME280;2563;52.242;7.956;2023-11-22T08:24:30;102750.91;;;1.13;100.00
5574;BME280;2563;52.242;7.956;2023-11-22T08:26:55;102750.63;;;1.24;100.00
5574;BME280;2563;52.242;7.956;2023-11-22T08:29:20;102734.03;;;1.31;100.00
5574;BME280;2563;52.242;7.956;2023-11-22T08:31:46;102700.19;;;1.31;100.00
5574;BME280;2563;52.242;7.956;2023-11-22T08:34:11;102667.00;;;1.26;100.00
5574;BME280;2563;52.242;7.956;2023-11-22T08:36:36;102632.03;;;1.38;100.00
5574;BME280;2563;52.242;7.956;2023-11-22T08:39:02;102590.69;;;1.39;100.00
5574;BME280;2563;52.242;7.956;2023-11-22T08:41:29;102553.72;;;1.46;100.00
5574;BME280;2563;52.242;7.956;2023-11-22T08:43:56;102555.63;;;1.50;100.00
5574;BME280;2563;52.242;7.956;2023-11-22T08:46:21;102549.69;;;1.49;100.00
5574;BME280;2563;52.242;7.956;2023-11-22T08:48:48;102505.59;;;1.47;100.00
5574;BME280;2563;52.242;7.956;2023-11-22T08:51:14;102473.69;;;1.53;100.00
5574;BME280;2563;52.242;7.956;2023-11-22T08:53:40;102437.94;;;1.67;100.00
5574;BME280;2563;52.242;7.956;2023-11-22T08:56:05;102391.78;;;1.76;100.00
5574;BME280;2563;52.242;7.956;2023-11-22T08:58:34;102399.34;;;1.96;100.00
5574;BME280;2563;52.242;7.956;2023-11-22T09:00:59;102366.97;;;2.11;100.00
5574;BME280;2563;52.242;7.956;2023-11-22T09:03:24;102356.25;;;2.18;100.00
5574;BME280;2563;52.242;7.956;2023-11-22T09:05:50;102332.53;;;2.40;100.00
5574;BME280;2563;52.242;7.956;2023-11-22T09:08:15;102304.94;;;2.51;100.00
5574;BME280;2563;52.242;7.956;2023-11-22T09:10:44;102307.19;;;2.66;100.00
5574;BME280;2563;52.242;7.956;2023-11-22T09:13:10;102285.19;;;2.66;100.00
5574;BME280;2563;52.242;7.956;2023-11-22T09:15:36;102232.59;;;2.65;100.00
5574;BME280;2563;52.242;7.956;2023-11-22T09:18:04;102207.31;;;2.68;100.00
5574;BME280;2563;52.242;7.956;2023-11-22T09:20:29;102173.84;;;2.82;100.00
5574;BME280;2563;52.242;7.956;2023-11-22T09:22:54;102160.44;;;2.86;100.00
5574;BME280;2563;52.242;7.956;2023-11-22T09:25:21;102148.66;;;2.89;100.00
5574;BME280;2563;52.242;7.956;2023-11-22T09:27:48;102158.03;;;2.90;100.00
5574;BME280;2563;52.242;7.956;2023-11-22T09:30:18;102154.81;;;2.96;100.00
5574;BME280;2563;52.242;7.956;2023-11-22T09:33:05;102166.13;;;3.04;100.00
5574;BME280;2563;52.242;7.956;2023-11-22T09:35:31;102172.03;;;3.03;100.00
5574;BME280;2563;52.242;7.956;2023-11-22T09:38:01;102166.88;;;3.02;100.00
5574;BME280;2563;52.242;7.956;2023-11-22T09:40:27;102148.41;;;3.07;100.00
5574;BME280;2563;52.242;7.956;2023-11-22T09:42:55;102159.81;;;3.18;100.00
5574;BME280;2563;52.242;7.956;2023-11-22T09:45:21;102159.81;;;3.18;100.00
5574;BME280;2563;52.242;7.956;2023-11-22T09:47:47;102169.63;;;3.33;100.00
5574;BME280;2563;52.242;7.956;2023-11-22T09:50:20;102168.94;;;3.39;100.00
5574;BME280;2563;52.242;7.956;2023-11-22T09:52:53;102154.88;;;3.52;100.00
5574;BME280;2563;52.242;7.956;2023-11-22T09:55:21;102149.16;;;3.57;100.00
5574;BME280;2563;52.242;7.956;2023-11-22T09:57:50;102157.88;;;3.66;100.00
5574;BME280;2563;52.242;7.956;2023-11-22T10:00:16;102145.75;;;3.58;100.00
5574;BME280;2563;52.242;7.956;2023-11-22T10:02:44;102132.13;;;3.56;100.00
5574;BME280;2563;52.242;7.956;2023-11-22T10:05:10;102132.47;;;3.69;100.00
5574;BME280;2563;52.242;7.956;2023-11-22T10:07:36;102131.75;;;3.44;100.00
5574;BME280;2563;52.242;7.956;2023-11-22T10:10:03;102120.81;;;3.47;100.00
5574;BME280;2563;52.242;7.956;2023-11-22T10:12:31;102130.84;;;3.71;100.00
5574;BME280;2563;52.242;7.956;2023-11-22T10:15:13;102126.94;;;3.82;100.00
5574;BME280;2563;52.242;7.956;2023-11-22T10:17:38;102130.03;;;4.00;100.00
5574;BME280;2563;52.242;7.956;2023-11-22T10:20:04;102137.88;;;4.08;100.00
5574;BME280;2563;52.242;7.956;2023-11-22T10:22:44;102138.13;;;4.17;100.00
5574;BME280;2563;52.242;7.956;2023-11-22T10:25:11;102146.00;;;4.25;100.00
5574;BME280;2563;52.242;7.956;2023-11-22T10:27:38;102125.19;;;4.41;100.00
5574;BME280;2563;52.242;7.956;2023-11-22T10:30:04;102124.47;;;4.45;100.00
5574;BME280;2563;52.242;7.956;2023-11-22T10:32:30;102135.66;;;4.51;100.00
5574;BME280;2563;52.242;7.956;2023-11-22T10:34:55;102143.25;;;4.49;100.00
5574;BME280;2563;52.242;7.956;2023-11-22T10:37:20;102162.59;;;4.41;100.00
5574;BME280;2563;52.242;7.956;2023-11-22T10:39:52;102170.81;;;4.64;100.00
5574;BME280;2563;52.242;7.956;2023-11-22T10:42:18;102180.72;;;4.85;100.00
5574;BME280;2563;52.242;7.956;2023-11-22T10:44:45;102194.59;;;4.95;100.00
5574;BME280;2563;52.242;7.956;2023-11-22T10:47:14;102207.97;;;4.86;100.00
5574;BME280;2563;52.242;7.956;2023-11-22T10:49:44;102229.53;;;4.65;100.00
5574;BME280;2563;52.242;7.956;2023-11-22T10:52:12;102261.00;;;4.66;100.00
5574;BME280;2563;52.242;7.956;2023-11-22T10:54:44;102285.16;;;4.79;100.00
5574;BME280;2563;52.242;7.956;2023-11-22T10:57:12;102303.97;;;4.82;100.00
5574;BME280;2563;52.242;7.956;2023-11-22T10:59:41;102334.84;;;4.92;100.00
5574;BME280;2563;52.242;7.956;2023-11-22T11:02:11;102357.97;;;4.98;100.00
5574;BME280;2563;52.242;7.956;2023-11-22T11:04:51;102399.47;;;4.90;100.00
5574;BME280;2563;52.242;7.956;2023-11-22T11:07:21;102421.28;;;5.09;100.00
5574;BME280;2563;52.242;7.956;2023-11-22T11:09:49;102438.53;;;5.18;100.00
5574;BME280;2563;52.242;7.956;2023-11-22T11:12:16;102463.75;;;5.07;100.00
5574;BME280;2563;52.242;7.956;2023-11-22T11:14:42;102502.63;;;4.99;100.00
5574;BME280;2563;52.242;7.956;2023-11-22T11:17:10;102532.09;;;5.16;100.00
5574;BME280;2563;52.242;7.956;2023-11-22T11:19:36;102546.31;;;5.37;100.00
5574;BME280;2563;52.242;7.956;2023-11-22T11:22:03;102570.53;;;5.49;100.00
5574;BME280;2563;52.242;7.956;2023-11-22T11:24:29;102591.66;;;5.72;100.00
5574;BME280;2563;52.242;7.956;2023-11-22T11:26:54;102600.31;;;5.49;100.00
5574;BME280;2563;52.242;7.956;2023-11-22T11:29:33;102637.34;;;5.35;100.00
5574;BME280;2563;52.242;7.956;2023-11-22T11:32:04;102635.03;;;5.15;100.00
5574;BME280;2563;52.242;7.956;2023-11-22T11:34:31;102626.53;;;5.43;100.00
5574;BME280;2563;52.242;7.956;2023-11-22T11:36:59;102595.00;;;5.43;100.00
5574;BME280;2563;52.242;7.956;2023-11-22T11:39:26;102554.44;;;5.52;100.00
5574;BME280;2563;52.242;7.956;2023-11-22T11:42:08;102489.78;;;5.24;100.00
5574;BME280;2563;52.242;7.956;2023-11-22T11:44:34;102422.97;;;5.39;100.00
5574;BME280;2563;52.242;7.956;2023-11-22T11:47:08;102363.03;;;6.29;100.00
5574;BME280;2563;52.242;7.956;2023-11-22T11:49:36;102319.81;;;8.35;100.00
5574;BME280;2563;52.242;7.956;2023-11-22T11:52:02;102210.75;;;9.70;100.00
5574;BME280;2563;52.242;7.956;2023-11-22T11:54:28;102006.88;;;10.64;100.00
5574;BME280;2563;52.242;7.956;2023-11-22T11:56:59;101902.13;;;9.50;100.00
5574;BME280;2563;52.242;7.956;2023-11-22T11:59:25;101803.41;;;8.60;100.00
5574;BME280;2563;52.242;7.956;2023-11-22T12:01:54;101748.72;;;8.86;100.00
5574;BME280;2563;52.242;7.956;2023-11-22T12:04:22;101694.81;;;9.55;100.00
5574;BME280;2563;52.242;7.956;2023-11-22T12:06:49;101572.97;;;9.99;100.00
5574;BME280;2563;52.242;7.956;2023-11-22T12:09:22;101469.09;;;11.10;100.00
5574;BME280;2563;52.242;7.956;2023-11-22T12:11:49;101399.84;;;12.07;100.00
5574;BME280;2563;52.242;7.956;2023-11-22T12:14:14;101314.13;;;11.34;100.00
5574;BME280;2563;52.242;7.956;2023-11-22T12:16:40;101288.13;;;10.91;100.00
5574;BME280;2563;52.242;7.956;2023-11-22T12:19:08;101104.00;;;10.60;100.00
5574;BME280;2563;52.242;7.956;2023-11-22T12:21:34;101054.50;;;11.86;100.00
5574;BME280;2563;52.242;7.956;2023-11-22T12:24:00;101176.72;;;11.79;100.00
5574;BME280;2563;52.242;7.956;2023-11-22T12:26:26;101216.38;;;12.60;100.00
5574;BME280;2563;52.242;7.956;2023-11-22T12:28:51;101347.38;;;11.51;100.00
5574;BME280;2563;52.242;7.956;2023-11-22T12:31:18;101427.81;;;11.13;100.00
5574;BME280;2563;52.242;7.956;2023-11-22T12:33:43;101486.09;;;10.38;100.00
5574;BME280;2563;52.242;7.956;2023-11-22T12:36:10;101525.09;;;9.67;100.00
5574;BME280;2563;52.242;7.956;2023-11-22T12:38:41;101539.59;;;9.87;100.00
5574;BME280;2563;52.242;7.956;2023-11-22T12:41:07;101513.19;;;10.80;100.00
5574;BME280;2563;52.242;7.956;2023-11-22T12:43:33;101575.38;;;10.22;100.00
5574;BME280;2563;52.242;7.956;2023-11-22T12:46:03;101605.72;;;9.55;100.00
5574;BME280;2563;52.242;7.956;2023-11-22T12:48:29;101883.34;;;9.98;100.00
5574;BME280;2563;52.242;7.956;2023-11-22T12:50:56;102260.44;;;8.72;100.00
5574;BME280;2563;52.242;7.956;2023-11-22T12:53:22;102430.72;;;7.66;100.00
5574;BME280;2563;52.242;7.956;2023-11-22T12:55:50;102315.47;;;6.77;100.00
5574;BME280;2563;52.242;7.956;2023-11-22T12:58:20;102172.34;;;6.88;100.00
5574;BME280;2563;52.242;7.956;2023-11-22T13:00:47;102027.47;;;6.44;100.00
5574;BME280;2563;52.242;7.956;2023-11-22T13:03:13;101942.09;;;6.39;100.00